KDHT

Dalhart Municipal Airport

Dalhart, Texas, USA
METAR KDHT 160553Z AUTO 20013KT 10SM -RA BKN120 19/17 A3014 RMK AO2 LTG DSNT SW AND W RAB02 SLP153 P0002 60002 T01890167 10311 20189 403330172 51024
Observed Flight Rules
Aug-16 @ 05:53 UTC (24 minutes ago) Visual Flight Rules
Wind Visibility Clouds Conditions
200° at 13 knots 10 miles
  • Broken at 12,000' AGL
  • Light Rain
Temperatures Readings Precipitation
Current 19°C / 66°F
Dewpoint 17°C / 63°F
Humidity 88%
Altimeter 30.14" Hg
Pressure 1015.3 hPa
Elevation 1217
Current Rain 0.02
METAR KDHT 160553Z AUTO 20013KT 10SM -RA BKN120 19/17 A3014 RMK AO2 LTG DSNT SW AND W RAB02 SLP153 P0002 60002 T01890167 10311 20189 403330172 51024
Observed Flight Rules
Aug-16 @ 05:53 UTC
(24 minutes ago)
VFR
Wind Visibility
200° at 13 knots 10 miles
Clouds
  • Broken at 12,000' AGL
Conditions
  • Light Rain
Temperature Dewpoint
19°C / 66°F 17°C / 63°F
Humidity Altimeter Pressure
88% 30.14" Hg 1015.3 hPa
Current Rain
0.02